Time;durP1;ratioP1;P1;durP2;ratioP2;P2;SDS_P1;SDS_P2;PMS_P1;PMS_P2;Temp;Humidity;BMP_temperature;BMP_pressure;BME280_temperature;BME280_humidity;BME280_pressure;Samples;Min_cycle;Max_cycle;Signal;HPM_P1;HPM_P2
2022/03/16 00:00:12;;;;;;;9.97;7.23;;;11.80;99.90;;;;;;1018741;29;20471;-68
2022/03/16 00:00:42;;;;;;;7.68;6.63;;;11.80;99.90;;;;;;1018511;29;20130;-68
2022/03/16 00:01:13;;;;;;;11.27;7.17;;;11.80;99.90;;;;;;1018505;29;20024;-68
2022/03/16 00:01:44;;;;;;;8.70;7.17;;;11.80;99.90;;;;;;1018620;29;20114;-69
2022/03/16 00:02:19;;;;;;;9.33;7.53;;;11.80;99.90;;;;;;1018752;29;20028;-68
2022/03/16 00:02:50;;;;;;;9.63;7.57;;;11.80;99.90;;;;;;1019062;29;20024;-70
2022/03/16 00:03:21;;;;;;;7.67;6.47;;;11.80;99.90;;;;;;1018661;29;20071;-67
2022/03/16 00:03:52;;;;;;;8.17;6.60;;;11.80;99.90;;;;;;1019097;29;20106;-68
2022/03/16 00:04:22;;;;;;;9.85;7.05;;;11.70;99.90;;;;;;1015854;29;20043;-68
2022/03/16 00:04:55;;;;;;;10.03;7.87;;;11.70;99.90;;;;;;1013946;29;20036;-68
2022/03/16 00:05:26;;;;;;;8.85;7.85;;;11.70;99.90;;;;;;1018810;29;20118;-68
2022/03/16 00:05:57;;;;;;;9.80;6.78;;;11.70;99.90;;;;;;1019144;29;20046;-68
2022/03/16 00:06:27;;;;;;;8.33;7.40;;;11.70;99.90;;;;;;1018910;29;20038;-68
2022/03/16 00:06:58;;;;;;;7.67;6.83;;;11.70;99.90;;;;;;1018731;29;20087;-68
2022/03/16 00:07:28;;;;;;;7.60;6.87;;;11.70;99.90;;;;;;1018853;29;20672;-69
2022/03/16 00:07:59;;;;;;;8.97;7.53;;;11.70;99.90;;;;;;1019427;29;20027;-69
2022/03/16 00:08:31;;;;;;;8.17;6.83;;;11.70;99.90;;;;;;1018774;29;20047;-68
2022/03/16 00:09:03;;;;;;;11.00;7.82;;;11.70;99.90;;;;;;1018760;29;20023;-69
2022/03/16 00:09:33;;;;;;;8.93;7.07;;;11.70;99.90;;;;;;1018962;29;20446;-68
2022/03/16 00:10:05;;;;;;;10.40;6.87;;;11.70;99.90;;;;;;1019047;29;20451;-68
2022/03/16 00:10:35;;;;;;;9.50;6.85;;;11.70;99.90;;;;;;1018990;29;20034;-69
2022/03/16 00:11:06;;;;;;;8.70;7.77;;;11.70;99.90;;;;;;1018929;29;20023;-70
2022/03/16 00:11:36;;;;;;;10.90;7.87;;;11.70;99.90;;;;;;1018930;29;20027;-69
2022/03/16 00:12:07;;;;;;;8.87;6.97;;;11.70;99.90;;;;;;1018687;29;20028;-68
2022/03/16 00:12:40;;;;;;;8.75;7.15;;;11.70;99.90;;;;;;1018852;29;20167;-69
2022/03/16 00:13:11;;;;;;;7.60;6.85;;;11.70;99.90;;;;;;1018577;29;20039;-70
2022/03/16 00:13:41;;;;;;;7.47;6.77;;;11.70;99.90;;;;;;1018385;29;20126;-69
2022/03/16 00:14:12;;;;;;;12.27;6.90;;;11.70;99.90;;;;;;1018670;29;20101;-69
2022/03/16 00:14:43;;;;;;;8.40;6.97;;;11.70;99.90;;;;;;1018611;29;20027;-70
2022/03/16 00:15:14;;;;;;;7.90;6.47;;;11.70;99.90;;;;;;1014572;29;20028;-69
2022/03/16 00:15:44;;;;;;;10.63;7.17;;;11.60;99.90;;;;;;1014901;29;20102;-69
2022/03/16 00:16:14;;;;;;;7.73;6.93;;;11.60;99.90;;;;;;1014769;29;20023;-69
2022/03/16 00:16:45;;;;;;;7.80;6.93;;;11.60;99.90;;;;;;1014926;29;20032;-69
2022/03/16 00:17:16;;;;;;;8.10;6.83;;;11.60;99.90;;;;;;1014437;29;20028;-69
2022/03/16 00:17:47;;;;;;;8.80;7.35;;;11.60;99.90;;;;;;1014858;29;20038;-69
2022/03/16 00:18:19;;;;;;;9.83;6.93;;;11.60;99.90;;;;;;1014880;29;20336;-68
2022/03/16 00:18:50;;;;;;;9.38;7.15;;;11.60;99.90;;;;;;1014679;29;20471;-68
2022/03/16 00:19:20;;;;;;;8.27;7.47;;;11.60;99.90;;;;;;1014918;29;20431;-68
2022/03/16 00:19:51;;;;;;;8.60;7.20;;;11.60;99.90;;;;;;1015264;29;20107;-68
2022/03/16 00:20:21;;;;;;;8.30;7.50;;;11.60;99.90;;;;;;1014869;29;20418;-68
2022/03/16 00:20:52;;;;;;;10.27;6.93;;;11.60;99.90;;;;;;1015204;29;20024;-71
2022/03/16 00:21:22;;;;;;;7.97;7.17;;;11.50;99.90;;;;;;1016215;29;20024;-68
2022/03/16 00:21:53;;;;;;;8.77;7.40;;;11.50;99.90;;;;;;1019087;29;20090;-67
2022/03/16 00:22:23;;;;;;;8.17;7.10;;;11.50;99.90;;;;;;1018247;29;20742;-68
2022/03/16 00:22:54;;;;;;;8.43;7.40;;;11.50;99.90;;;;;;1018744;29;20530;-68
2022/03/16 00:23:25;;;;;;;9.00;7.30;;;11.50;99.90;;;;;;1018651;29;20518;-68
2022/03/16 00:23:56;;;;;;;8.50;7.60;;;11.50;99.90;;;;;;1018675;29;20082;-68
2022/03/16 00:24:27;;;;;;;8.30;7.50;;;11.50;99.90;;;;;;1018997;29;20095;-69
2022/03/16 00:24:58;;;;;;;10.30;6.70;;;11.50;99.90;;;;;;1018542;29;20119;-69
2022/03/16 00:25:28;;;;;;;7.88;7.07;;;11.50;99.90;;;;;;1018641;29;20117;-68
2022/03/16 00:25:59;;;;;;;8.03;7.23;;;11.50;99.90;;;;;;1018480;29;20162;-70
2022/03/16 00:26:29;;;;;;;7.73;7.03;;;11.50;99.90;;;;;;1018725;29;20451;-68
2022/03/16 00:27:00;;;;;;;7.67;6.80;;;11.50;99.90;;;;;;1018666;29;20107;-68
2022/03/16 00:27:30;;;;;;;8.73;7.50;;;11.50;99.90;;;;;;1018856;29;20078;-68
2022/03/16 00:28:01;;;;;;;9.47;7.60;;;11.50;99.90;;;;;;1019060;29;20042;-69
2022/03/16 00:28:31;;;;;;;9.73;7.40;;;11.40;99.90;;;;;;1018914;29;20481;-68
2022/03/16 00:29:02;;;;;;;7.67;6.97;;;11.50;99.90;;;;;;1018954;29;20110;-69
2022/03/16 00:29:32;;;;;;;7.70;7.00;;;11.50;99.90;;;;;;1018926;29;20493;-69
2022/03/16 00:30:04;;;;;;;8.83;7.33;;;11.40;99.90;;;;;;1018618;29;20118;-69
2022/03/16 00:30:36;;;;;;;8.50;7.70;;;11.40;99.90;;;;;;1018807;29;20667;-69
2022/03/16 00:31:07;;;;;;;9.00;7.40;;;11.40;99.90;;;;;;1019127;29;20016;-68
2022/03/16 00:31:37;;;;;;;7.67;6.97;;;11.40;99.90;;;;;;1019083;29;20114;-69
2022/03/16 00:32:08;;;;;;;8.17;7.40;;;11.40;99.90;;;;;;1018424;29;20024;-68
2022/03/16 00:32:38;;;;;;;9.60;7.30;;;11.40;99.90;;;;;;1018322;29;20719;-69
2022/03/16 00:33:11;;;;;;;10.30;7.57;;;11.40;99.90;;;;;;1018748;29;20577;-69
2022/03/16 00:33:41;;;;;;;9.23;7.00;;;11.40;99.90;;;;;;1018357;29;20038;-69
2022/03/16 00:34:12;;;;;;;10.77;7.20;;;11.40;99.90;;;;;;1018990;29;20070;-68
2022/03/16 00:34:42;;;;;;;9.53;8.07;;;11.40;99.90;;;;;;1018876;29;20039;-69
2022/03/16 00:35:13;;;;;;;8.83;7.27;;;11.40;99.90;;;;;;1018437;29;20032;-68
2022/03/16 00:35:43;;;;;;;8.67;7.77;;;11.40;99.90;;;;;;1018487;29;20070;-69
2022/03/16 00:36:14;;;;;;;8.70;7.43;;;11.40;99.90;;;;;;1018579;29;20582;-69
2022/03/16 00:36:44;;;;;;;8.00;7.20;;;11.40;99.90;;;;;;1018995;29;20043;-69
2022/03/16 00:37:15;;;;;;;8.27;7.40;;;11.40;99.90;;;;;;1018693;29;20048;-68
2022/03/16 00:37:46;;;;;;;8.23;7.30;;;11.30;99.90;;;;;;1014691;29;20747;-69
2022/03/16 00:38:16;;;;;;;8.85;7.50;;;11.30;99.90;;;;;;1018442;29;20125;-69
2022/03/16 00:38:48;;;;;;;8.60;7.80;;;11.30;99.90;;;;;;1018565;29;20797;-67
2022/03/16 00:39:19;;;;;;;8.23;7.40;;;11.30;99.90;;;;;;1018638;29;20479;-68
2022/03/16 00:39:49;;;;;;;8.33;7.00;;;11.30;99.90;;;;;;1019083;29;20502;-68
2022/03/16 00:40:20;;;;;;;7.90;6.97;;;11.30;99.90;;;;;;1018761;29;20439;-68
2022/03/16 00:40:51;;;;;;;8.47;7.60;;;11.30;99.90;;;;;;1018511;29;20119;-69
2022/03/16 00:41:21;;;;;;;10.37;7.97;;;11.30;99.90;;;;;;1018431;29;20114;-69
2022/03/16 00:41:52;;;;;;;8.83;8.00;;;11.30;99.90;;;;;;1019091;29;20811;-68
2022/03/16 00:42:22;;;;;;;8.97;7.77;;;11.30;99.90;;;;;;1018277;29;20022;-68
2022/03/16 00:42:53;;;;;;;7.97;7.27;;;11.30;99.90;;;;;;1018655;29;20761;-70
2022/03/16 00:43:24;;;;;;;8.68;7.90;;;11.30;99.90;;;;;;1018787;29;20035;-69
2022/03/16 00:43:54;;;;;;;9.20;8.30;;;11.30;99.90;;;;;;1018975;29;20012;-68
2022/03/16 00:44:26;;;;;;;8.83;7.93;;;11.30;99.90;;;;;;1019075;29;20028;-67
2022/03/16 00:44:57;;;;;;;8.70;7.80;;;11.30;99.90;;;;;;1019112;29;20020;-69
2022/03/16 00:45:27;;;;;;;7.97;7.00;;;11.30;99.90;;;;;;1018897;29;20028;-69
2022/03/16 00:45:58;;;;;;;8.10;7.30;;;11.30;99.90;;;;;;1018835;29;20154;-69
2022/03/16 00:46:28;;;;;;;8.90;8.10;;;11.30;99.90;;;;;;1018903;29;20106;-69
2022/03/16 00:46:59;;;;;;;9.93;8.83;;;11.30;99.90;;;;;;1019093;29;20118;-69
2022/03/16 00:47:29;;;;;;;7.93;7.07;;;11.30;99.90;;;;;;1018965;29;20023;-69
2022/03/16 00:48:00;;;;;;;9.77;8.87;;;11.30;99.90;;;;;;1018605;29;20515;-69
2022/03/16 00:48:30;;;;;;;8.10;7.30;;;11.30;99.90;;;;;;1018347;29;20098;-69
2022/03/16 00:49:01;;;;;;;11.87;8.57;;;11.20;99.90;;;;;;1018499;29;20015;-69
2022/03/16 00:49:32;;;;;;;8.80;7.33;;;11.20;99.90;;;;;;1018736;29;20487;-69
2022/03/16 00:50:03;;;;;;;8.23;7.43;;;11.20;99.90;;;;;;1018304;29;20024;-69
2022/03/16 00:50:34;;;;;;;7.77;7.03;;;11.20;99.90;;;;;;1018546;29;20024;-69
2022/03/16 00:51:04;;;;;;;8.48;7.63;;;11.30;99.90;;;;;;1018945;29;20107;-69
2022/03/16 00:51:35;;;;;;;8.90;8.00;;;11.20;99.90;;;;;;1018886;29;20031;-69
2022/03/16 00:52:06;;;;;;;9.43;7.53;;;11.20;99.90;;;;;;1019082;29;20517;-69
2022/03/16 00:52:36;;;;;;;10.47;8.00;;;11.20;99.90;;;;;;1018822;29;20122;-69
2022/03/16 00:53:07;;;;;;;8.87;7.97;;;11.20;99.90;;;;;;1018544;29;20272;-68
2022/03/16 00:53:40;;;;;;;10.15;9.05;;;11.20;99.90;;;;;;1018652;29;20023;-68
2022/03/16 00:54:11;;;;;;;9.40;7.90;;;11.20;99.90;;;;;;1019051;29;20099;-69
2022/03/16 00:54:41;;;;;;;8.90;8.00;;;11.20;99.90;;;;;;1019194;29;20090;-69
2022/03/16 00:55:12;;;;;;;9.57;8.67;;;11.20;99.90;;;;;;1018631;29;20755;-69
2022/03/16 00:55:42;;;;;;;9.33;8.43;;;11.20;99.90;;;;;;1018958;29;20034;-69
2022/03/16 00:56:13;;;;;;;7.97;7.20;;;11.20;99.90;;;;;;1019001;29;20511;-69
2022/03/16 00:56:43;;;;;;;9.37;8.00;;;11.20;99.90;;;;;;1018332;29;20039;-69
2022/03/16 00:57:14;;;;;;;9.30;8.13;;;11.20;99.90;;;;;;1019169;29;20454;-69
2022/03/16 00:57:45;;;;;;;9.57;8.63;;;11.20;99.90;;;;;;1018619;29;20603;-69
2022/03/16 00:58:15;;;;;;;9.47;8.27;;;11.20;99.90;;;;;;1018374;29;20542;-69
2022/03/16 00:58:46;;;;;;;10.00;7.80;;;11.20;99.90;;;;;;1018480;29;20828;-69
2022/03/16 00:59:16;;;;;;;8.90;8.03;;;11.20;99.90;;;;;;1018545;29;20024;-69
2022/03/16 00:59:46;;;;;;;9.40;8.43;;;11.10;99.90;;;;;;1018919;29;20028;-68
2022/03/16 01:00:17;;;;;;;8.67;7.87;;;11.10;99.90;;;;;;1018431;29;20028;-67
2022/03/16 01:00:47;;;;;;;8.40;7.27;;;11.10;99.90;;;;;;1015034;29;20123;-68
2022/03/16 01:01:18;;;;;;;7.87;7.07;;;11.10;99.90;;;;;;1015025;28;20142;-68
2022/03/16 01:01:48;;;;;;;10.97;7.80;;;11.10;99.90;;;;;;1022345;29;20024;-68
2022/03/16 01:02:19;;;;;;;9.80;8.13;;;11.10;99.90;;;;;;1022600;29;20043;-69
2022/03/16 01:02:49;;;;;;;8.60;7.70;;;11.10;99.90;;;;;;1022618;29;20024;-67
2022/03/16 01:03:20;;;;;;;8.87;8.07;;;11.10;99.90;;;;;;1018669;29;20028;-67
2022/03/16 01:03:50;;;;;;;7.50;6.80;;;11.10;99.90;;;;;;1018830;29;20020;-68
2022/03/16 01:04:21;;;;;;;10.00;8.33;;;11.10;99.90;;;;;;1018156;29;20027;-69
2022/03/16 01:04:52;;;;;;;8.50;7.70;;;11.10;99.90;;;;;;1015044;29;20115;-68
2022/03/16 01:05:22;;;;;;;9.40;8.50;;;11.10;99.90;;;;;;1014530;29;20383;-67
2022/03/16 01:05:53;;;;;;;8.57;7.87;;;11.10;99.90;;;;;;1014560;29;20104;-68
2022/03/16 01:06:24;;;;;;;9.20;8.07;;;11.00;99.90;;;;;;1010854;29;20756;-68
2022/03/16 01:06:54;;;;;;;10.10;7.77;;;11.00;99.90;;;;;;1014695;29;20376;-68
2022/03/16 01:07:25;;;;;;;9.27;7.60;;;11.00;99.90;;;;;;1014658;29;20019;-68
2022/03/16 01:07:55;;;;;;;8.87;7.83;;;11.00;99.90;;;;;;1014875;29;20015;-67
2022/03/16 01:08:26;;;;;;;8.67;7.77;;;11.00;99.90;;;;;;1017128;29;20763;-68
2022/03/16 01:08:57;;;;;;;9.60;8.60;;;11.00;99.90;;;;;;1018744;29;20012;-67
2022/03/16 01:09:27;;;;;;;8.67;7.83;;;11.00;99.90;;;;;;1018915;29;20012;-67
2022/03/16 01:09:58;;;;;;;9.00;8.00;;;11.00;99.90;;;;;;1018993;29;20031;-69
2022/03/16 01:10:28;;;;;;;8.07;7.27;;;11.00;99.90;;;;;;1019085;29;20024;-67
2022/03/16 01:10:59;;;;;;;9.70;7.70;;;11.00;99.90;;;;;;1018748;29;20020;-67
2022/03/16 01:11:29;;;;;;;10.47;7.63;;;11.00;99.90;;;;;;1018929;29;20047;-67
2022/03/16 01:12:00;;;;;;;9.63;7.33;;;11.00;99.90;;;;;;1018851;29;20020;-67
2022/03/16 01:12:31;;;;;;;9.23;8.10;;;11.00;99.90;;;;;;1018796;29;20028;-68
2022/03/16 01:13:01;;;;;;;8.70;7.80;;;11.00;99.90;;;;;;1019008;29;20023;-68
2022/03/16 01:13:32;;;;;;;8.60;7.80;;;11.00;99.90;;;;;;1018873;29;20120;-68
2022/03/16 01:14:03;;;;;;;9.07;7.43;;;11.00;99.90;;;;;;1018764;29;20043;-71
2022/03/16 01:14:33;;;;;;;8.10;7.25;;;11.00;99.90;;;;;;1018871;29;20040;-68
2022/03/16 01:15:05;;;;;;;8.60;7.67;;;11.00;99.90;;;;;;1018807;29;20058;-69
2022/03/16 01:15:36;;;;;;;9.68;8.05;;;11.00;99.90;;;;;;1019135;29;20028;-69
2022/03/16 01:16:06;;;;;;;9.30;7.80;;;11.00;99.90;;;;;;1018732;29;20171;-68
2022/03/16 01:16:39;;;;;;;9.00;7.70;;;11.00;99.90;;;;;;1019003;29;20016;-69
2022/03/16 01:17:09;;;;;;;9.05;8.15;;;10.90;99.90;;;;;;1018821;29;20023;-68
2022/03/16 01:17:40;;;;;;;8.90;7.30;;;10.90;99.90;;;;;;1018762;29;20059;-68
2022/03/16 01:18:11;;;;;;;11.00;8.40;;;10.90;99.90;;;;;;1019343;29;20031;-69
2022/03/16 01:18:42;;;;;;;9.57;7.57;;;10.90;99.90;;;;;;1018819;29;20075;-69
2022/03/16 01:19:14;;;;;;;8.60;7.68;;;10.90;99.90;;;;;;1018698;29;20312;-68
2022/03/16 01:19:45;;;;;;;8.82;8.00;;;10.90;99.90;;;;;;1018879;29;20028;-69
2022/03/16 01:20:16;;;;;;;8.77;7.97;;;10.90;99.90;;;;;;1018818;29;20111;-69
2022/03/16 01:20:46;;;;;;;8.70;7.83;;;10.90;99.90;;;;;;1019050;29;20024;-68
2022/03/16 01:21:16;;;;;;;7.97;7.20;;;10.90;99.90;;;;;;1018632;29;20035;-68
2022/03/16 01:21:48;;;;;;;7.80;7.10;;;10.90;99.90;;;;;;1018963;29;20032;-68
2022/03/16 01:22:18;;;;;;;9.13;8.23;;;10.90;99.90;;;;;;1018679;29;20032;-68
2022/03/16 01:22:49;;;;;;;8.60;7.77;;;10.90;99.90;;;;;;1018847;29;20123;-68
2022/03/16 01:23:19;;;;;;;10.07;8.57;;;10.90;99.90;;;;;;1018617;29;20126;-68
2022/03/16 01:23:51;;;;;;;8.90;8.10;;;10.90;99.90;;;;;;1018835;29;20055;-68
2022/03/16 01:24:21;;;;;;;9.00;7.85;;;10.90;99.90;;;;;;1018731;29;20035;-68
2022/03/16 01:24:52;;;;;;;12.20;8.57;;;10.90;99.90;;;;;;1019008;29;20031;-68
2022/03/16 01:25:23;;;;;;;9.20;8.00;;;10.90;99.90;;;;;;1018441;29;20035;-68
2022/03/16 01:25:53;;;;;;;9.27;7.70;;;10.90;99.90;;;;;;1019258;29;20034;-69
2022/03/16 01:26:24;;;;;;;9.93;8.00;;;10.80;99.90;;;;;;1018685;29;20047;-69
2022/03/16 01:26:54;;;;;;;8.43;7.63;;;10.80;99.90;;;;;;1018452;29;20455;-69
2022/03/16 01:27:25;;;;;;;9.07;7.83;;;10.80;99.90;;;;;;1018522;29;20039;-68
2022/03/16 01:27:55;;;;;;;9.67;7.57;;;10.80;99.90;;;;;;1018583;29;20024;-68
2022/03/16 01:28:26;;;;;;;9.50;8.03;;;10.80;99.90;;;;;;1018828;29;20676;-68
2022/03/16 01:28:56;;;;;;;9.23;7.73;;;10.80;99.90;;;;;;1018820;29;20020;-68
2022/03/16 01:29:27;;;;;;;9.23;7.83;;;10.80;99.90;;;;;;1018431;29;20039;-68
2022/03/16 01:29:57;;;;;;;8.63;7.83;;;10.80;99.90;;;;;;1018519;29;20040;-67
2022/03/16 01:30:28;;;;;;;8.73;7.53;;;10.80;99.90;;;;;;1018250;29;20039;-67
2022/03/16 01:31:01;;;;;;;9.37;8.47;;;10.80;99.90;;;;;;1018742;29;20091;-68
2022/03/16 01:31:31;;;;;;;8.80;7.90;;;10.80;99.90;;;;;;1018991;29;20020;-68
2022/03/16 01:32:02;;;;;;;9.23;8.43;;;10.80;99.90;;;;;;1018642;29;20035;-69
2022/03/16 01:32:33;;;;;;;9.77;8.77;;;10.80;99.90;;;;;;1018723;29;20032;-68
2022/03/16 01:33:03;;;;;;;8.10;7.30;;;10.80;99.90;;;;;;1018675;28;20059;-69
2022/03/16 01:33:34;;;;;;;10.07;8.63;;;10.80;99.90;;;;;;1018966;29;20382;-68
2022/03/16 01:34:05;;;;;;;9.10;7.83;;;10.80;99.90;;;;;;1018676;29;20038;-68
2022/03/16 01:34:35;;;;;;;8.53;7.17;;;10.80;99.90;;;;;;1018775;29;20027;-68
2022/03/16 01:35:07;;;;;;;9.50;8.27;;;10.80;99.90;;;;;;1018888;29;20023;-68
2022/03/16 01:35:37;;;;;;;9.38;8.48;;;10.80;99.90;;;;;;1018536;29;20399;-68
2022/03/16 01:36:08;;;;;;;8.37;7.47;;;10.80;99.90;;;;;;1019035;29;20444;-69
2022/03/16 01:36:38;;;;;;;9.00;8.10;;;10.80;99.90;;;;;;1018791;29;20774;-68
2022/03/16 01:37:10;;;;;;;8.53;7.70;;;10.80;99.90;;;;;;1018728;29;20020;-68
2022/03/16 01:37:43;;;;;;;9.13;8.10;;;10.70;99.90;;;;;;1018891;29;20712;-68
2022/03/16 01:38:13;;;;;;;9.13;8.20;;;10.70;99.90;;;;;;1014293;29;20017;-69
2022/03/16 01:38:44;;;;;;;9.17;8.27;;;10.70;99.90;;;;;;1014746;29;20123;-68
2022/03/16 01:39:15;;;;;;;8.77;7.87;;;10.70;99.90;;;;;;1014481;29;20044;-67
2022/03/16 01:39:45;;;;;;;9.93;9.00;;;10.70;99.90;;;;;;1014539;29;20428;-67
2022/03/16 01:40:16;;;;;;;9.07;8.17;;;10.70;99.90;;;;;;1014486;29;20032;-67
2022/03/16 01:40:46;;;;;;;10.50;7.67;;;10.70;99.90;;;;;;1014649;29;20044;-68
2022/03/16 01:41:17;;;;;;;8.90;8.00;;;10.70;99.90;;;;;;1014600;29;20068;-70
2022/03/16 01:41:48;;;;;;;10.00;7.97;;;10.70;99.90;;;;;;1014536;29;20448;-68
2022/03/16 01:42:20;;;;;;;8.63;7.83;;;10.70;99.90;;;;;;1015040;29;20119;-68
2022/03/16 01:42:51;;;;;;;8.98;8.07;;;10.70;99.90;;;;;;1015474;29;20036;-68
2022/03/16 01:43:22;;;;;;;9.67;8.77;;;10.70;99.90;;;;;;1015057;29;20028;-68
2022/03/16 01:43:54;;;;;;;9.70;8.30;;;10.70;99.90;;;;;;1016037;29;20500;-68
2022/03/16 01:45:00;;;;;;;8.60;7.70;;;10.70;99.90;;;;;;1015392;29;20084;-68
2022/03/16 01:45:31;;;;;;;8.13;7.40;;;10.70;99.90;;;;;;1014969;29;20059;-69
2022/03/16 01:46:02;;;;;;;9.03;7.70;;;10.70;99.90;;;;;;1018155;29;20436;-68
2022/03/16 01:46:32;;;;;;;9.93;8.13;;;10.70;99.90;;;;;;1019259;29;20423;-68
2022/03/16 01:47:03;;;;;;;10.57;8.67;;;10.70;99.90;;;;;;1019031;29;20817;-67
2022/03/16 01:47:34;;;;;;;9.30;8.40;;;10.70;99.90;;;;;;1018770;29;20363;-68
2022/03/16 01:48:04;;;;;;;9.43;8.53;;;10.60;99.90;;;;;;1019204;29;20550;-68
2022/03/16 01:48:35;;;;;;;10.70;9.50;;;10.60;99.90;;;;;;1019571;29;20018;-68
2022/03/16 01:49:05;;;;;;;9.23;8.20;;;10.60;99.90;;;;;;1019702;29;20483;-69
2022/03/16 01:49:36;;;;;;;9.03;8.13;;;10.60;99.90;;;;;;1019557;29;20550;-68
2022/03/16 01:50:08;;;;;;;10.17;9.17;;;10.60;99.90;;;;;;1019770;29;20338;-67
2022/03/16 01:50:39;;;;;;;10.57;8.52;;;10.60;99.90;;;;;;1019386;29;20031;-67
2022/03/16 01:51:09;;;;;;;8.47;7.67;;;10.60;99.90;;;;;;1019421;29;20027;-68
2022/03/16 01:51:40;;;;;;;9.10;8.17;;;10.60;99.90;;;;;;1019610;29;20081;-68
2022/03/16 01:52:13;;;;;;;9.03;8.13;;;10.60;99.90;;;;;;1019524;29;20036;-68
2022/03/16 01:52:44;;;;;;;9.50;8.57;;;10.60;99.90;;;;;;1019458;29;20049;-68
2022/03/16 01:53:15;;;;;;;8.53;7.73;;;10.60;99.90;;;;;;1019605;29;20024;-68
2022/03/16 01:53:46;;;;;;;9.70;8.70;;;10.60;99.90;;;;;;1019433;29;20267;-68
2022/03/16 01:54:17;;;;;;;9.60;8.67;;;10.60;99.90;;;;;;1019678;29;20287;-67
2022/03/16 01:54:48;;;;;;;9.77;8.20;;;10.60;99.90;;;;;;1019202;29;20131;-68
2022/03/16 01:55:19;;;;;;;9.10;8.20;;;10.50;99.90;;;;;;1018963;29;20114;-68
2022/03/16 01:55:50;;;;;;;9.73;8.47;;;10.50;99.90;;;;;;1019114;29;20034;-69
2022/03/16 01:56:21;;;;;;;8.63;7.82;;;10.50;99.90;;;;;;1019041;29;20319;-69
2022/03/16 01:56:52;;;;;;;8.70;7.90;;;10.50;99.90;;;;;;1019818;29;20091;-69
2022/03/16 01:57:24;;;;;;;9.65;8.75;;;10.50;99.90;;;;;;1016257;29;20501;-68
2022/03/16 01:57:54;;;;;;;8.85;8.05;;;10.50;99.90;;;;;;1016004;29;20028;-67
2022/03/16 01:58:25;;;;;;;9.47;8.57;;;10.50;99.90;;;;;;1018963;29;20031;-68
2022/03/16 01:58:55;;;;;;;8.83;8.00;;;10.50;99.90;;;;;;1019395;29;20020;-68
2022/03/16 01:59:26;;;;;;;8.67;7.80;;;10.50;99.90;;;;;;1019348;29;20023;-70
2022/03/16 01:59:56;;;;;;;9.97;8.27;;;10.50;99.90;;;;;;1018984;29;20083;-68
2022/03/16 02:00:27;;;;;;;8.50;7.63;;;10.50;99.90;;;;;;1019631;29;20048;-69
2022/03/16 02:00:57;;;;;;;9.70;8.70;;;10.50;99.90;;;;;;1018804;29;20034;-70
2022/03/16 02:01:28;;;;;;;8.97;8.17;;;10.50;99.90;;;;;;1019170;29;20026;-70
2022/03/16 02:01:58;;;;;;;9.20;8.17;;;10.50;99.90;;;;;;1019249;29;20150;-69
2022/03/16 02:02:29;;;;;;;8.77;7.77;;;10.50;99.90;;;;;;1019179;29;20139;-68
2022/03/16 02:02:59;;;;;;;10.00;9.10;;;10.50;99.90;;;;;;1019184;29;20110;-69
2022/03/16 02:03:30;;;;;;;9.87;8.97;;;10.50;99.90;;;;;;1018986;29;20024;-67
2022/03/16 02:04:00;;;;;;;9.37;7.83;;;10.50;99.90;;;;;;1019171;29;20022;-68
2022/03/16 02:04:31;;;;;;;9.83;8.83;;;10.50;99.90;;;;;;1018929;29;20463;-69
2022/03/16 02:05:01;;;;;;;9.33;8.43;;;10.50;99.90;;;;;;1019150;29;20024;-67
2022/03/16 02:05:32;;;;;;;10.00;8.03;;;10.40;99.90;;;;;;1019084;29;20035;-67
2022/03/16 02:06:03;;;;;;;10.07;8.43;;;10.40;99.90;;;;;;1019313;29;20067;-68
2022/03/16 02:06:34;;;;;;;9.43;8.52;;;10.40;99.90;;;;;;1019272;29;20034;-67
2022/03/16 02:07:05;;;;;;;9.10;8.20;;;10.40;99.90;;;;;;1019686;29;20019;-67
2022/03/16 02:07:37;;;;;;;9.70;8.80;;;10.40;99.90;;;;;;1019451;29;20398;-68
2022/03/16 02:08:10;;;;;;;9.10;8.20;;;10.40;99.90;;;;;;1019637;29;20016;-68
2022/03/16 02:08:41;;;;;;;11.50;8.48;;;10.40;99.90;;;;;;1019276;29;20130;-67
2022/03/16 02:09:12;;;;;;;8.83;7.93;;;10.40;99.90;;;;;;1019739;29;20081;-69
2022/03/16 02:09:43;;;;;;;9.10;8.30;;;10.40;99.90;;;;;;1019682;29;20339;-68
2022/03/16 02:10:15;;;;;;;8.83;8.03;;;10.40;99.90;;;;;;1019439;29;20441;-68
2022/03/16 02:10:45;;;;;;;8.60;7.65;;;10.40;99.90;;;;;;1019236;29;20054;-68
2022/03/16 02:11:16;;;;;;;10.13;9.17;;;10.40;99.90;;;;;;1019225;29;20038;-68
2022/03/16 02:11:46;;;;;;;8.60;7.80;;;10.40;99.90;;;;;;1018916;29;20612;-69
2022/03/16 02:12:17;;;;;;;9.13;8.27;;;10.40;99.90;;;;;;1019212;29;20032;-68
2022/03/16 02:12:49;;;;;;;8.33;7.53;;;10.40;99.90;;;;;;1019089;29;20060;-67
2022/03/16 02:13:21;;;;;;;9.95;8.32;;;10.40;99.90;;;;;;1019195;29;20026;-67
2022/03/16 02:13:51;;;;;;;9.10;8.20;;;10.40;99.90;;;;;;1019200;29;20027;-67
2022/03/16 02:14:22;;;;;;;9.30;8.40;;;10.40;99.90;;;;;;1019320;29;20031;-67
2022/03/16 02:14:53;;;;;;;10.13;9.23;;;10.40;99.90;;;;;;1019654;29;20108;-67
2022/03/16 02:15:24;;;;;;;9.20;8.37;;;10.40;99.90;;;;;;1019353;29;20279;-67
2022/03/16 02:15:54;;;;;;;9.57;8.65;;;10.40;99.90;;;;;;1018779;29;20061;-67
2022/03/16 02:16:25;;;;;;;10.23;9.10;;;10.40;99.90;;;;;;1015023;29;20104;-67
2022/03/16 02:16:59;;;;;;;9.73;8.83;;;10.30;99.90;;;;;;1015327;29;20020;-68
2022/03/16 02:17:29;;;;;;;9.65;8.85;;;10.30;99.90;;;;;;1016062;29;20031;-68
2022/03/16 02:18:00;;;;;;;9.20;8.40;;;10.30;99.90;;;;;;1015391;29;20024;-67
2022/03/16 02:18:30;;;;;;;10.70;9.70;;;10.30;99.90;;;;;;1019147;29;20012;-68
2022/03/16 02:19:01;;;;;;;9.80;8.87;;;10.30;99.90;;;;;;1019117;29;20012;-67
2022/03/16 02:19:32;;;;;;;8.93;8.13;;;10.30;99.90;;;;;;1018927;29;20019;-67
2022/03/16 02:20:04;;;;;;;9.57;8.68;;;10.30;99.90;;;;;;1019579;29;20027;-67
2022/03/16 02:20:35;;;;;;;8.75;7.95;;;10.30;99.90;;;;;;1019039;29;20529;-68
2022/03/16 02:21:07;;;;;;;8.53;7.73;;;10.30;99.90;;;;;;1018722;29;20024;-69
2022/03/16 02:21:40;;;;;;;9.73;8.82;;;10.30;99.90;;;;;;1019077;29;20091;-69
2022/03/16 02:22:14;;;;;;;9.20;8.40;;;10.30;99.90;;;;;;1019076;29;20071;-68
2022/03/16 02:22:59;;;;;;;9.63;8.63;;;10.30;99.90;;;;;;1019419;29;20024;-68
2022/03/16 02:23:29;;;;;;;9.35;8.45;;;10.30;99.90;;;;;;1016905;29;20090;-68
2022/03/16 02:24:01;;;;;;;9.73;8.83;;;10.30;99.90;;;;;;1015533;29;20107;-68
2022/03/16 02:24:32;;;;;;;9.10;8.23;;;10.30;99.90;;;;;;1015288;29;20103;-67
2022/03/16 02:25:07;;;;;;;10.27;9.20;;;10.30;99.90;;;;;;1015879;29;20020;-67
2022/03/16 02:25:49;;;;;;;10.20;9.30;;;10.30;99.90;;;;;;1015158;29;20040;-68
2022/03/16 02:26:25;;;;;;;10.15;9.20;;;10.20;99.90;;;;;;1015441;29;20024;-68
2022/03/16 02:26:57;;;;;;;10.43;9.43;;;10.20;99.90;;;;;;1015666;29;20419;-68
2022/03/16 02:27:28;;;;;;;10.25;9.35;;;10.20;99.90;;;;;;1015276;29;20020;-67
2022/03/16 02:27:59;;;;;;;9.38;8.48;;;10.20;99.90;;;;;;1017136;29;20107;-67
2022/03/16 02:28:30;;;;;;;9.20;8.30;;;10.20;99.90;;;;;;1018755;29;20371;-67
2022/03/16 02:29:00;;;;;;;11.07;10.07;;;10.20;99.90;;;;;;1019076;29;20023;-68
2022/03/16 02:29:31;;;;;;;10.33;9.33;;;10.20;99.90;;;;;;1018990;29;20067;-67
2022/03/16 02:30:02;;;;;;;10.18;9.18;;;10.20;99.90;;;;;;1019228;29;20445;-68
2022/03/16 02:30:33;;;;;;;9.70;8.80;;;10.20;99.90;;;;;;1019410;29;20370;-69
2022/03/16 02:31:05;;;;;;;9.87;8.87;;;10.20;99.90;;;;;;1019493;29;20020;-70
2022/03/16 02:31:35;;;;;;;9.60;8.70;;;10.20;99.90;;;;;;1019447;29;20043;-68
2022/03/16 02:32:06;;;;;;;10.03;9.10;;;10.20;99.90;;;;;;1019421;29;20114;-67
2022/03/16 02:32:37;;;;;;;9.60;8.63;;;10.20;99.90;;;;;;1019145;29;20125;-68
2022/03/16 02:33:07;;;;;;;10.07;8.97;;;10.20;99.90;;;;;;1019765;29;20038;-67
2022/03/16 02:33:38;;;;;;;9.67;8.77;;;10.20;99.90;;;;;;1019426;29;20079;-67
2022/03/16 02:34:08;;;;;;;10.83;9.70;;;10.20;99.90;;;;;;1015384;29;20175;-68
2022/03/16 02:34:39;;;;;;;10.23;9.20;;;10.20;99.90;;;;;;1015440;29;20032;-68
2022/03/16 02:35:09;;;;;;;10.67;9.53;;;10.10;99.90;;;;;;1015608;29;20035;-69
2022/03/16 02:35:40;;;;;;;10.40;8.93;;;10.10;99.90;;;;;;1015142;29;20091;-68
2022/03/16 02:36:10;;;;;;;10.30;8.83;;;10.10;99.90;;;;;;1015236;29;20135;-68
2022/03/16 02:36:41;;;;;;;9.73;8.83;;;10.10;99.90;;;;;;1011064;29;20036;-68
2022/03/16 02:37:12;;;;;;;9.87;8.87;;;10.10;99.90;;;;;;1011320;29;20073;-68
2022/03/16 02:37:42;;;;;;;10.30;9.23;;;10.10;99.90;;;;;;1014989;29;20096;-70
2022/03/16 02:38:13;;;;;;;10.00;9.10;;;10.10;99.90;;;;;;1015049;29;20491;-67
2022/03/16 02:38:44;;;;;;;9.47;8.53;;;10.10;99.90;;;;;;1014985;29;20024;-68
2022/03/16 02:39:15;;;;;;;9.60;8.70;;;10.10;99.90;;;;;;1014979;29;20099;-69
2022/03/16 02:39:47;;;;;;;10.13;9.03;;;10.10;99.90;;;;;;1011342;29;20599;-69
2022/03/16 02:40:20;;;;;;;10.15;9.18;;;10.10;99.90;;;;;;1015082;29;20044;-69
2022/03/16 02:40:51;;;;;;;11.18;8.80;;;10.10;99.90;;;;;;1015271;29;20406;-67
2022/03/16 02:41:21;;;;;;;12.07;9.70;;;10.10;99.90;;;;;;1014997;29;20586;-68